Time;durP1;ratioP1;P1;durP2;ratioP2;P2;SDS_P1;SDS_P2;PMS_P1;PMS_P2;Temp;Humidity;BMP_temperature;BMP_pressure;BME280_temperature;BME280_humidity;BME280_pressure;Samples;Min_cycle;Max_cycle;Signal;HPM_P1;HPM_P2
2024/02/29 00:00:18;;;;;;;21.67;13.15;;;;;;;4.33;88.93;98388.06;5160688;23;20174;-81
2024/02/29 00:02:21;;;;;;;23.13;14.15;;;;;;;4.37;88.25;98389.59;5187456;22;20268;-82
2024/02/29 00:04:26;;;;;;;24.15;12.85;;;;;;;4.34;89.06;98381.97;5136697;23;20339;-82
2024/02/29 00:06:29;;;;;;;21.52;14.10;;;;;;;4.34;89.44;98384.56;5135826;23;20717;-82
2024/02/29 00:08:34;;;;;;;21.15;13.18;;;;;;;4.32;88.42;98375.22;5136510;23;20174;-82
2024/02/29 00:10:37;;;;;;;27.73;15.48;;;;;;;4.33;88.74;98380.31;5160847;23;20174;-82
2024/02/29 00:12:40;;;;;;;24.25;14.07;;;;;;;4.29;88.91;98380.50;5162477;23;20186;-82
2024/02/29 00:14:44;;;;;;;21.00;13.23;;;;;;;4.30;88.42;98383.03;5163492;23;20511;-82
2024/02/29 00:16:47;;;;;;;25.50;14.80;;;;;;;4.32;89.82;98375.22;5162392;23;20193;-82
2024/02/29 00:18:50;;;;;;;23.17;16.02;;;;;;;4.36;89.05;98377.63;5162846;23;20712;-82
2024/02/29 00:20:53;;;;;;;24.45;15.57;;;;;;;4.43;89.84;98378.22;5162261;23;20207;-82
2024/02/29 00:22:55;;;;;;;22.80;14.35;;;;;;;4.42;90.37;98381.69;5161929;23;20732;-82
2024/02/29 00:25:00;;;;;;;23.75;13.82;;;;;;;4.39;89.31;98384.38;5159922;23;20684;-82
2024/02/29 00:27:05;;;;;;;23.88;14.55;;;;;;;4.39;88.61;98385.25;5160319;23;20197;-82
2024/02/29 00:29:07;;;;;;;22.25;14.05;;;;;;;4.38;88.73;98380.97;5189465;22;20212;-82
2024/02/29 00:31:10;;;;;;;22.42;13.95;;;;;;;4.32;88.87;98373.47;5137917;23;20176;-82
2024/02/29 00:33:14;;;;;;;20.38;13.10;;;;;;;4.29;88.23;98376.19;5189309;22;20180;-82
2024/02/29 00:35:18;;;;;;;27.00;15.30;;;;;;;4.22;88.01;98371.31;5162603;23;20627;-83
2024/02/29 00:37:22;;;;;;;21.23;13.07;;;;;;;4.22;88.33;98382.50;5163003;23;20177;-82
2024/02/29 00:39:26;;;;;;;25.85;13.68;;;;;;;4.20;88.00;98379.09;5161174;23;20181;-83
2024/02/29 00:41:30;;;;;;;22.50;13.30;;;;;;;4.19;89.19;98373.19;5189161;22;20176;-82
2024/02/29 00:43:33;;;;;;;22.58;13.52;;;;;;;4.17;88.50;98359.50;5137135;23;20178;-82
2024/02/29 00:45:36;;;;;;;18.33;12.07;;;;;;;4.13;87.26;98355.34;5160929;23;20595;-81
2024/02/29 00:47:40;;;;;;;19.70;12.45;;;;;;;4.09;87.65;98356.34;5162191;23;20468;-82
2024/02/29 00:49:44;;;;;;;26.67;13.63;;;;;;;4.06;88.15;98357.34;5163092;23;20678;-82
2024/02/29 00:51:47;;;;;;;24.70;13.82;;;;;;;4.02;88.38;98354.94;5162674;23;20177;-82
2024/02/29 00:53:50;;;;;;;21.38;13.38;;;;;;;4.01;88.27;98353.25;5137098;23;20204;-82
2024/02/29 00:55:52;;;;;;;24.05;13.88;;;;;;;4.03;89.29;98359.19;5186497;22;20188;-82
2024/02/29 00:57:57;;;;;;;25.40;14.48;;;;;;;4.04;88.94;98355.72;5188791;22;20718;-82
2024/02/29 01:00:00;;;;;;;22.98;14.02;;;;;;;4.04;88.90;98353.13;5138245;23;20189;-82
2024/02/29 01:02:04;;;;;;;24.42;14.32;;;;;;;4.04;88.14;98345.38;5162499;23;20204;-82
2024/02/29 01:04:07;;;;;;;21.25;12.32;;;;;;;4.03;88.59;98348.84;5162169;23;20177;-82
2024/02/29 01:06:11;;;;;;;21.48;13.07;;;;;;;4.00;88.81;98342.09;5134127;23;20204;-82
2024/02/29 01:08:14;;;;;;;19.90;12.43;;;;;;;3.96;88.98;98342.28;5162616;23;20195;-82
2024/02/29 01:10:17;;;;;;;24.63;13.60;;;;;;;3.92;88.09;98336.38;5162321;23;20538;-82
2024/02/29 01:12:21;;;;;;;22.90;12.60;;;;;;;3.95;89.17;98344.00;5188885;22;20169;-82
2024/02/29 01:14:26;;;;;;;23.45;13.95;;;;;;;3.89;88.90;98338.22;5162170;23;20174;-81
2024/02/29 01:16:29;;;;;;;23.08;13.05;;;;;;;3.88;89.50;98339.16;5137003;23;20673;-81
2024/02/29 01:18:33;;;;;;;25.40;13.65;;;;;;;3.88;89.77;98331.41;5136529;23;20187;-82
2024/02/29 01:20:36;;;;;;;22.05;11.68;;;;;;;3.89;89.35;98338.22;5161051;23;20215;-82
2024/02/29 01:22:39;;;;;;;22.30;12.98;;;;;;;3.84;88.73;98329.84;5190019;22;20594;-82
2024/02/29 01:24:42;;;;;;;22.58;14.63;;;;;;;3.82;88.26;98336.81;5162339;23;20202;-81
2024/02/29 01:26:46;;;;;;;22.48;13.10;;;;;;;3.79;89.06;98329.19;5186862;22;20204;-81
2024/02/29 01:28:48;;;;;;;21.77;13.13;;;;;;;3.79;87.72;98329.19;5136658;23;20602;-81
2024/02/29 01:30:53;;;;;;;23.30;14.18;;;;;;;3.80;89.22;98328.25;5162826;23;20173;-81
2024/02/29 01:32:56;;;;;;;22.60;13.88;;;;;;;3.80;89.66;98323.09;5135652;23;20245;-81
2024/02/29 01:34:59;;;;;;;24.45;14.15;;;;;;;3.83;88.91;98328.16;5163095;23;20223;-81
2024/02/29 01:37:04;;;;;;;24.45;14.10;;;;;;;3.79;89.87;98321.44;5135134;23;20216;-81
2024/02/29 01:39:07;;;;;;;27.60;13.18;;;;;;;3.79;89.87;98319.69;5136139;23;20184;-82
2024/02/29 01:41:11;;;;;;;21.42;12.85;;;;;;;3.78;89.61;98319.75;5189631;22;20478;-82
2024/02/29 01:43:14;;;;;;;21.38;12.80;;;;;;;3.75;90.01;98320.72;5137538;23;20177;-81
2024/02/29 01:45:18;;;;;;;25.80;13.90;;;;;;;3.73;88.87;98313.94;5160962;23;20887;-81
2024/02/29 01:47:22;;;;;;;24.65;13.73;;;;;;;3.70;88.98;98313.19;5161334;23;20184;-81
2024/02/29 01:49:26;;;;;;;21.38;12.75;;;;;;;3.67;88.95;98311.59;5161761;23;20232;-81
2024/02/29 01:51:31;;;;;;;22.98;13.20;;;;;;;3.67;89.75;98311.59;5159374;23;20177;-81
2024/02/29 01:53:34;;;;;;;23.23;13.63;;;;;;;3.68;90.02;98313.25;5162818;23;20212;-81
2024/02/29 01:55:37;;;;;;;24.52;13.60;;;;;;;3.65;89.54;98309.97;5188267;22;20184;-81
2024/02/29 01:57:41;;;;;;;21.27;12.65;;;;;;;3.64;89.61;98305.69;5161624;23;20227;-81
2024/02/29 01:59:46;;;;;;;23.17;14.20;;;;;;;3.61;89.22;98306.66;5137541;23;20269;-82
2024/02/29 02:01:48;;;;;;;21.98;12.63;;;;;;;3.59;89.05;98298.13;5136878;23;20200;-81
2024/02/29 02:03:53;;;;;;;22.55;13.68;;;;;;;3.62;89.52;98305.75;5162466;23;20177;-81
2024/02/29 02:05:56;;;;;;;27.08;13.73;;;;;;;3.58;89.31;98296.47;5161028;23;20205;-82
2024/02/29 02:07:59;;;;;;;22.33;13.90;;;;;;;3.55;90.26;98299.16;5162146;23;20182;-87
2024/02/29 02:10:03;;;;;;;22.90;13.45;;;;;;;3.55;89.64;98298.31;5162452;23;20197;-84
2024/02/29 02:12:06;;;;;;;24.00;13.05;;;;;;;3.56;89.81;98294.84;5136345;23;20178;-88
2024/02/29 02:14:09;;;;;;;27.67;14.60;;;;;;;3.54;90.36;98296.66;5161363;23;20177;-88
2024/02/29 02:16:13;;;;;;;31.48;16.17;;;;;;;3.52;91.08;98288.97;5158181;23;20248;-88
2024/02/29 02:18:17;;;;;;;31.95;15.60;;;;;;;3.55;91.10;98291.44;5135608;23;20696;-87
2024/02/29 02:20:23;;;;;;;43.58;16.48;;;;;;;3.53;91.72;98297.53;5162362;23;20179;-88
2024/02/29 02:22:26;;;;;;;38.00;16.00;;;;;;;3.53;91.41;98293.22;5161045;23;20181;-87
2024/02/29 02:24:30;;;;;;;35.35;16.25;;;;;;;3.53;91.25;98293.22;5137304;23;20765;-87
2024/02/29 02:26:33;;;;;;;28.77;15.75;;;;;;;3.50;90.84;98284.75;5188434;22;20231;-91
2024/02/29 02:28:37;;;;;;;39.65;17.13;;;;;;;3.46;91.00;98286.63;5137809;23;20260;-90
2024/02/29 02:30:39;;;;;;;47.42;17.52;;;;;;;3.41;89.87;98277.38;5135481;23;20588;-87
2024/02/29 02:32:42;;;;;;;43.40;15.82;;;;;;;3.39;90.40;98274.03;5163005;23;20169;-89
2024/02/29 02:34:46;;;;;;;45.42;17.55;;;;;;;3.36;90.58;98271.56;5136736;23;20174;-89
2024/02/29 02:36:51;;;;;;;34.13;16.55;;;;;;;3.33;91.16;98269.09;5187985;22;20177;-90
2024/02/29 02:38:54;;;;;;;33.08;15.15;;;;;;;3.33;91.59;98269.09;5136847;23;20269;-89
2024/02/29 02:40:57;;;;;;;33.47;15.38;;;;;;;3.33;92.23;98267.34;5137958;23;20281;-90
2024/02/29 02:43:01;;;;;;;34.92;15.63;;;;;;;3.33;91.79;98269.91;5189137;22;20184;-91
2024/02/29 02:45:04;;;;;;;30.83;15.82;;;;;;;3.34;91.99;98265.63;5188704;22;20172;-89
2024/02/29 02:47:07;;;;;;;38.33;16.80;;;;;;;3.35;91.01;98267.28;5161769;23;20272;-89
2024/02/29 02:49:11;;;;;;;30.75;17.05;;;;;;;3.31;91.21;98261.41;5159923;23;20169;-90
2024/02/29 02:51:14;;;;;;;79.63;15.90;;;;;;;3.34;91.93;98268.22;5137017;23;20198;-88
2024/02/29 02:53:19;;;;;;;38.05;16.27;;;;;;;3.32;92.51;98265.69;5161086;23;20553;-88
2024/02/29 02:55:22;;;;;;;28.17;15.88;;;;;;;3.33;91.64;98261.38;5188949;22;20428;-88
2024/02/29 02:57:25;;;;;;;26.92;14.80;;;;;;;3.32;91.64;98263.09;5188310;22;20226;-88
2024/02/29 02:59:29;;;;;;;43.47;14.93;;;;;;;3.33;92.14;98264.78;5136539;23;20619;-87
2024/02/29 03:01:32;;;;;;;67.32;15.85;;;;;;;3.36;92.49;98256.09;5162396;23;20822;-89
2024/02/29 03:03:35;;;;;;;36.30;15.82;;;;;;;3.34;91.99;98256.16;5162214;23;20233;-88
2024/02/29 03:05:38;;;;;;;43.50;16.52;;;;;;;3.31;92.29;98251.13;5187957;22;20239;-87
2024/02/29 03:07:41;;;;;;;28.83;15.70;;;;;;;3.28;92.54;98251.22;5137226;23;20233;-88
2024/02/29 03:09:46;;;;;;;49.65;15.73;;;;;;;3.29;91.98;98252.06;5160855;23;20375;-85
2024/02/29 03:11:49;;;;;;;39.13;13.93;;;;;;;3.26;92.87;98246.19;5189161;22;20177;-88
2024/02/29 03:13:53;;;;;;;38.03;13.73;;;;;;;3.27;92.10;98239.22;5136307;23;20292;-88
2024/02/29 03:15:56;;;;;;;33.05;14.27;;;;;;;3.24;92.68;98243.66;5161266;23;20715;-88
2024/02/29 03:18:00;;;;;;;36.80;14.20;;;;;;;3.20;92.46;98231.78;5136749;23;20178;-86
2024/02/29 03:20:08;;;;;;;31.23;14.57;;;;;;;3.18;92.93;98227.59;5136621;23;20177;-88
2024/02/29 03:22:11;;;;;;;47.35;15.30;;;;;;;3.17;92.79;98225.91;5161926;23;20200;-89
2024/02/29 03:24:14;;;;;;;44.40;14.05;;;;;;;3.15;92.73;98231.13;5159820;23;20177;-89
2024/02/29 03:26:19;;;;;;;39.50;14.88;;;;;;;3.13;92.12;98220.06;5160239;23;20208;-88
2024/02/29 03:28:22;;;;;;;37.55;15.30;;;;;;;3.11;92.33;98215.84;5138220;23;20515;-89
2024/02/29 03:30:25;;;;;;;44.25;15.70;;;;;;;3.08;92.00;98213.38;5137467;23;20265;-89
2024/02/29 03:32:29;;;;;;;36.03;14.60;;;;;;;3.04;92.26;98214.41;5136865;23;20582;-85
2024/02/29 03:34:33;;;;;;;52.70;15.05;;;;;;;2.99;92.08;98217.16;5187511;22;20169;-89
2024/02/29 03:36:35;;;;;;;56.22;15.45;;;;;;;2.94;92.22;98211.31;5161396;23;20177;-89
2024/02/29 03:38:40;;;;;;;38.53;15.40;;;;;;;2.95;92.06;98219.91;5161473;23;20842;-88
2024/02/29 03:40:42;;;;;;;37.67;14.95;;;;;;;2.92;92.97;98217.44;5188632;22;20185;-87
2024/02/29 03:42:47;;;;;;;45.80;14.98;;;;;;;2.95;92.51;98219.91;5136290;23;20178;-86
2024/02/29 03:44:50;;;;;;;34.35;14.48;;;;;;;2.93;93.12;98221.66;5162114;23;20642;-89
2024/02/29 03:46:56;;;;;;;49.28;15.82;;;;;;;2.91;93.14;98213.16;5135940;23;20198;-88
2024/02/29 03:48:59;;;;;;;35.22;15.73;;;;;;;2.89;93.20;98215.78;5161231;23;20192;-89
2024/02/29 03:51:02;;;;;;;35.58;15.27;;;;;;;2.91;93.27;98214.00;5138055;23;20205;-88
2024/02/29 03:53:06;;;;;;;55.40;14.68;;;;;;;2.92;93.10;98212.28;5162839;23;20622;-88
2024/02/29 03:55:11;;;;;;;55.15;16.60;;;;;;;2.88;93.44;98201.22;5138243;23;20178;-85
2024/02/29 03:57:14;;;;;;;47.47;16.67;;;;;;;2.87;93.64;98217.59;5137715;23;20170;-88
2024/02/29 03:59:19;;;;;;;55.28;15.73;;;;;;;2.88;94.22;98214.09;5190363;22;20806;-87
2024/02/29 04:01:22;;;;;;;50.13;17.27;;;;;;;2.87;93.69;98217.59;5161136;23;20177;-89
2024/02/29 04:03:25;;;;;;;64.57;16.27;;;;;;;2.85;92.84;98213.38;5138155;23;20213;-88
2024/02/29 04:05:29;;;;;;;49.88;16.98;;;;;;;2.80;92.88;98205.00;5189896;22;20195;-86
2024/02/29 04:07:31;;;;;;;47.85;17.15;;;;;;;2.79;92.89;98207.63;5164010;23;20225;-85
2024/02/29 04:09:36;;;;;;;44.88;16.08;;;;;;;2.79;92.57;98212.78;5162789;23;20622;-89
2024/02/29 04:11:39;;;;;;;41.17;14.95;;;;;;;2.76;93.00;98213.72;5163349;23;20188;-88
2024/02/29 04:13:44;;;;;;;40.58;15.68;;;;;;;2.78;93.46;98214.50;5163064;23;20173;-88
2024/02/29 04:15:48;;;;;;;44.83;16.55;;;;;;;2.80;93.18;98212.72;5160873;23;20173;-88
2024/02/29 04:17:52;;;;;;;45.38;16.60;;;;;;;2.77;92.84;98210.25;5137926;23;20210;-86
2024/02/29 04:19:54;;;;;;;55.80;18.05;;;;;;;2.76;92.73;98211.13;5164802;23;20192;-88
2024/02/29 04:21:57;;;;;;;44.25;17.00;;;;;;;2.72;93.32;98213.88;5192154;22;20198;-88
2024/02/29 04:24:01;;;;;;;36.75;17.10;;;;;;;2.68;92.99;98204.59;5138108;23;20178;-88
2024/02/29 04:26:04;;;;;;;40.22;16.20;;;;;;;2.66;93.32;98199.50;5189009;22;20177;-87
2024/02/29 04:28:07;;;;;;;44.08;16.88;;;;;;;2.65;93.32;98202.97;5190724;22;20177;-89
2024/02/29 04:30:11;;;;;;;40.00;16.63;;;;;;;2.68;93.15;98210.59;5138413;23;20175;-88
2024/02/29 04:32:16;;;;;;;41.92;16.10;;;;;;;2.70;93.47;98203.63;5164504;23;20199;-89
2024/02/29 04:34:19;;;;;;;28.92;15.75;;;;;;;2.71;92.97;98204.50;5165116;23;20169;-88
2024/02/29 04:36:23;;;;;;;40.55;16.88;;;;;;;2.73;92.61;98192.41;5165076;23;20177;-87
2024/02/29 04:38:25;;;;;;;51.88;16.33;;;;;;;2.73;93.94;98202.69;5163948;23;20181;-89
2024/02/29 04:40:29;;;;;;;48.20;16.52;;;;;;;2.78;93.46;98201.63;5191903;22;20219;-89
2024/02/29 04:42:33;;;;;;;42.85;15.82;;;;;;;2.78;93.67;98201.63;5164657;23;20173;-87
2024/02/29 04:44:36;;;;;;;45.25;17.55;;;;;;;2.80;93.69;98200.69;5191315;22;20188;-89
2024/02/29 04:46:38;;;;;;;50.95;16.85;;;;;;;2.82;93.13;98201.44;5138191;23;20244;-89
2024/02/29 04:48:43;;;;;;;50.08;17.55;;;;;;;2.80;93.68;98198.09;5138086;23;20252;-88
2024/02/29 04:50:46;;;;;;;43.33;16.48;;;;;;;2.79;93.04;98202.47;5136255;23;20174;-88
2024/02/29 04:52:49;;;;;;;40.17;16.35;;;;;;;2.79;93.30;98199.00;5136438;23;20599;-88
2024/02/29 04:54:52;;;;;;;38.08;15.90;;;;;;;2.79;93.37;98201.56;5162344;23;20235;-89
2024/02/29 04:56:55;;;;;;;43.60;15.60;;;;;;;2.79;92.83;98198.16;5162560;23;20170;-88
2024/02/29 04:58:58;;;;;;;33.22;14.65;;;;;;;2.77;92.72;98199.97;5137600;23;20209;-88
2024/02/29 05:01:01;;;;;;;29.92;14.15;;;;;;;2.73;92.41;98190.66;5161882;23;20177;-85
2024/02/29 05:03:05;;;;;;;26.08;13.32;;;;;;;2.66;91.83;98189.22;5137410;23;20185;-89
2024/02/29 05:05:12;;;;;;;35.10;13.10;;;;;;;2.65;91.27;98194.41;5135561;23;20607;-88
2024/02/29 05:07:14;;;;;;;37.33;15.27;;;;;;;2.63;91.86;98191.03;5161426;23;20285;-88
2024/02/29 05:09:18;;;;;;;35.30;14.93;;;;;;;2.62;92.02;98187.63;5163201;23;20188;-88
2024/02/29 05:11:21;;;;;;;33.58;14.55;;;;;;;2.60;92.19;98186.00;5137316;23;20242;-89
2024/02/29 05:13:24;;;;;;;35.13;14.68;;;;;;;2.57;91.87;98180.97;5189346;22;20180;-88
2024/02/29 05:15:27;;;;;;;55.22;15.98;;;;;;;2.54;91.98;98181.94;5188199;22;20513;-92
2024/02/29 05:17:31;;;;;;;50.83;16.15;;;;;;;2.49;92.35;98173.50;5138133;23;20406;-89
2024/02/29 05:19:37;;;;;;;45.10;14.43;;;;;;;2.45;92.39;98164.25;5136221;23;20266;-89
2024/02/29 05:21:43;;;;;;;45.42;14.85;;;;;;;2.43;92.18;98171.16;5162477;23;20177;-89
2024/02/29 05:23:47;;;;;;;46.35;17.30;;;;;;;2.39;93.49;98173.88;5163368;23;20174;-88
2024/02/29 05:25:50;;;;;;;66.22;18.60;;;;;;;2.39;93.89;98176.47;5136661;23;20705;-88
2024/02/29 05:27:53;;;;;;;68.22;16.80;;;;;;;2.40;94.56;98176.41;5135911;23;20608;-88
2024/02/29 05:29:57;;;;;;;64.82;17.15;;;;;;;2.43;93.83;98173.72;5162459;23;20187;-89
2024/02/29 05:32:00;;;;;;;48.42;16.45;;;;;;;2.45;93.86;98177.09;5163609;23;20589;-89
2024/02/29 05:34:02;;;;;;;52.70;17.42;;;;;;;2.47;94.52;98170.16;5135987;23;20255;-88
2024/02/29 05:36:06;;;;;;;51.08;16.10;;;;;;;2.50;94.29;98167.47;5159852;23;20173;-88
2024/02/29 05:38:10;;;;;;;46.25;15.85;;;;;;;2.51;93.99;98161.44;5162778;23;20188;-89
2024/02/29 05:40:14;;;;;;;47.42;16.40;;;;;;;2.53;93.73;98169.13;5135662;23;20210;-88
2024/02/29 05:42:17;;;;;;;50.55;16.45;;;;;;;2.53;93.94;98172.53;5137228;23;20174;-87
2024/02/29 05:44:20;;;;;;;49.22;17.27;;;;;;;2.51;94.18;98160.59;5162673;23;20241;-87
2024/02/29 05:46:22;;;;;;;44.40;17.40;;;;;;;2.52;94.47;98164.84;5133887;23;20178;-89
2024/02/29 05:48:25;;;;;;;37.55;15.70;;;;;;;2.54;94.36;98161.34;5132555;23;20198;-88
2024/02/29 05:50:28;;;;;;;43.53;19.15;;;;;;;2.58;94.95;98162.88;5134101;23;20182;-87
2024/02/29 05:52:36;;;;;;;36.92;17.20;;;;;;;2.58;94.72;98162.88;5137085;23;20190;-85
2024/02/29 05:54:41;;;;;;;44.42;16.15;;;;;;;2.61;94.73;98162.78;5160145;23;20183;-87
2024/02/29 05:56:44;;;;;;;45.63;16.77;;;;;;;2.63;94.44;98166.16;5186142;22;20172;-88
2024/02/29 05:58:48;;;;;;;36.25;17.80;;;;;;;2.63;94.28;98161.00;5161724;23;20609;-88
2024/02/29 06:00:51;;;;;;;38.05;16.63;;;;;;;2.66;94.38;98155.75;5163145;23;20177;-88
2024/02/29 06:02:54;;;;;;;46.83;16.63;;;;;;;2.68;93.95;98153.97;5138217;23;20198;-87
2024/02/29 06:04:58;;;;;;;42.95;16.67;;;;;;;2.67;93.65;98152.28;5161295;23;20519;-88
2024/02/29 06:07:01;;;;;;;32.90;16.17;;;;;;;2.66;93.34;98148.03;5137010;23;20264;-87
2024/02/29 06:09:03;;;;;;;34.90;16.35;;;;;;;2.64;92.97;98144.66;5161397;23;20200;-85
2024/02/29 06:11:12;;;;;;;39.20;16.10;;;;;;;2.62;92.85;98131.03;5163202;23;20181;-87
2024/02/29 06:13:15;;;;;;;39.35;16.05;;;;;;;2.58;92.45;98128.59;5163420;23;20172;-88
2024/02/29 06:15:20;;;;;;;30.88;15.43;;;;;;;2.54;92.25;98138.19;5187823;22;20184;-88
2024/02/29 06:17:22;;;;;;;30.80;14.85;;;;;;;2.50;92.15;98133.19;5161708;23;20231;-89
2024/02/29 06:19:26;;;;;;;37.70;15.55;;;;;;;2.48;92.13;98135.84;5188911;22;20558;-88
2024/02/29 06:21:29;;;;;;;40.47;15.77;;;;;;;2.45;92.13;98135.94;5137374;23;20193;-87
2024/02/29 06:23:33;;;;;;;43.17;16.75;;;;;;;2.45;92.56;98137.66;5189612;22;20205;-86
2024/02/29 06:25:36;;;;;;;35.20;15.65;;;;;;;2.42;93.15;98133.47;5161242;23;20181;-88
2024/02/29 06:27:40;;;;;;;35.95;15.45;;;;;;;2.44;92.95;98134.25;5161083;23;20824;-88
2024/02/29 06:29:44;;;;;;;54.88;17.08;;;;;;;2.44;93.65;98130.84;5163022;23;20178;-88
2024/02/29 06:31:48;;;;;;;39.15;16.45;;;;;;;2.46;93.06;98124.72;5163735;23;20181;-90
2024/02/29 06:33:51;;;;;;;52.72;17.33;;;;;;;2.50;93.88;98122.91;5137901;23;20174;-88
2024/02/29 06:35:54;;;;;;;64.25;18.33;;;;;;;2.55;93.78;98124.41;5136444;23;20289;-89
2024/02/29 06:37:57;;;;;;;48.25;17.60;;;;;;;2.58;93.99;98120.88;5138541;23;20178;-89
2024/02/29 06:40:01;;;;;;;52.17;16.20;;;;;;;2.65;94.25;98119.78;5162846;23;20173;-89
2024/02/29 06:42:03;;;;;;;50.25;18.00;;;;;;;2.70;94.51;98129.00;5189312;22;20181;-89
2024/02/29 06:44:08;;;;;;;38.17;17.80;;;;;;;2.73;93.94;98121.16;5163153;23;20209;-89
2024/02/29 06:46:11;;;;;;;42.67;18.33;;;;;;;2.79;94.49;98123.50;5162523;23;20201;-89
2024/02/29 06:48:14;;;;;;;44.60;17.15;;;;;;;2.83;94.15;98123.34;5189611;22;20201;-81
2024/02/29 06:50:18;;;;;;;50.20;18.50;;;;;;;2.86;93.96;98122.38;5162830;23;20264;-82
2024/02/29 06:52:20;;;;;;;39.83;18.23;;;;;;;2.90;94.41;98126.50;5138642;23;20178;-81
2024/02/29 06:54:23;;;;;;;55.20;17.45;;;;;;;2.92;93.86;98119.59;5190155;22;20173;-82
2024/02/29 06:56:27;;;;;;;40.55;16.35;;;;;;;2.92;93.24;98123.00;5162156;23;20165;-82
2024/02/29 06:58:32;;;;;;;47.03;17.25;;;;;;;2.93;93.65;98123.81;5189917;22;20204;-83
2024/02/29 07:00:37;;;;;;;43.38;17.23;;;;;;;2.97;93.57;98118.50;5162584;23;20185;-81
2024/02/29 07:02:40;;;;;;;44.90;17.60;;;;;;;2.98;93.97;98117.59;5136654;23;20186;-82
2024/02/29 07:04:43;;;;;;;42.13;19.40;;;;;;;3.06;94.45;98125.03;5189427;22;20176;-82
2024/02/29 07:06:46;;;;;;;68.35;18.92;;;;;;;3.13;94.54;98123.88;5161202;23;20228;-82
2024/02/29 07:08:50;;;;;;;54.30;17.75;;;;;;;3.21;94.41;98119.28;5163356;23;20588;-82
2024/02/29 07:10:53;;;;;;;44.40;17.45;;;;;;;3.26;94.83;98119.94;5137668;23;20244;-83
2024/02/29 07:12:56;;;;;;;54.13;18.17;;;;;;;3.35;94.71;98110.97;5162838;23;20170;-82
2024/02/29 07:14:59;;;;;;;51.35;19.17;;;;;;;3.47;94.47;98115.63;5187586;22;20173;-82
2024/02/29 07:17:05;;;;;;;47.97;20.25;;;;;;;3.51;94.17;98111.19;5136484;23;20241;-81
2024/02/29 07:19:08;;;;;;;49.20;19.02;;;;;;;3.58;94.51;98110.00;5134603;23;20206;-82
2024/02/29 07:21:12;;;;;;;40.15;18.75;;;;;;;3.61;94.29;98110.75;5189644;22;20230;-82
2024/02/29 07:23:15;;;;;;;41.05;19.65;;;;;;;3.65;94.66;98108.88;5138245;23;20174;-82
2024/02/29 07:25:18;;;;;;;68.82;21.08;;;;;;;3.71;93.94;98111.22;5137222;23;20226;-83
2024/02/29 07:27:21;;;;;;;44.30;20.00;;;;;;;3.75;93.59;98109.28;5189718;22;20165;-82
2024/02/29 07:29:25;;;;;;;46.25;20.73;;;;;;;3.82;94.18;98107.28;5190359;22;20216;-82
2024/02/29 07:31:28;;;;;;;41.28;20.08;;;;;;;3.87;94.76;98107.94;5188956;22;20705;-82
2024/02/29 07:33:34;;;;;;;38.28;19.15;;;;;;;3.95;93.54;98105.84;5137619;23;20177;-82
2024/02/29 07:35:38;;;;;;;34.03;19.13;;;;;;;4.02;93.60;98107.28;5162409;23;20747;-83
2024/02/29 07:37:41;;;;;;;43.03;21.15;;;;;;;4.08;93.43;98107.84;5189250;22;20179;-83
2024/02/29 07:39:44;;;;;;;35.90;18.98;;;;;;;4.13;93.17;98105.91;5137622;23;20170;-83
2024/02/29 07:41:48;;;;;;;55.75;19.20;;;;;;;4.21;93.79;98103.88;5162348;23;20235;-83
2024/02/29 07:43:51;;;;;;;36.30;19.08;;;;;;;4.31;93.70;98108.53;5137608;23;20699;-83
2024/02/29 07:45:53;;;;;;;44.03;20.45;;;;;;;4.39;93.81;98106.47;5161273;23;20177;-84
2024/02/29 07:47:57;;;;;;;36.88;19.00;;;;;;;4.50;94.78;98111.16;5137081;23;20170;-83
2024/02/29 07:50:03;;;;;;;45.15;19.95;;;;;;;4.56;93.51;98116.88;5137530;23;20178;-83
2024/02/29 07:52:06;;;;;;;39.85;18.02;;;;;;;4.65;92.77;98121.66;5162181;23;20189;-82
2024/02/29 07:54:10;;;;;;;36.00;20.20;;;;;;;4.75;93.55;98112.56;5189446;22;20797;-81
2024/02/29 07:56:13;;;;;;;37.92;19.95;;;;;;;4.83;93.59;98121.66;5136304;23;20202;-82
2024/02/29 07:58:17;;;;;;;39.45;20.33;;;;;;;4.87;92.21;98123.19;5136487;23;20178;-81
2024/02/29 08:00:21;;;;;;;34.20;19.70;;;;;;;4.93;92.90;98122.91;5161543;23;20720;-83
2024/02/29 08:02:24;;;;;;;39.42;20.00;;;;;;;5.01;92.70;98122.56;5188602;22;20188;-82
2024/02/29 08:04:27;;;;;;;48.72;19.92;;;;;;;5.08;92.78;98122.19;5135737;23;20174;-82
2024/02/29 08:06:32;;;;;;;42.33;20.48;;;;;;;5.17;93.55;98117.44;5159612;23;20865;-82
2024/02/29 08:08:35;;;;;;;39.42;20.42;;;;;;;5.25;92.37;98114.50;5160825;23;20197;-82
2024/02/29 08:10:39;;;;;;;48.30;19.98;;;;;;;5.33;92.65;98108.06;5161952;23;20173;-82
2024/02/29 08:12:42;;;;;;;43.55;19.15;;;;;;;5.41;92.48;98111.13;5188119;22;20628;-82
2024/02/29 08:14:46;;;;;;;41.60;19.35;;;;;;;5.50;91.77;98115.84;5135495;23;20175;-82
2024/02/29 08:16:50;;;;;;;39.15;21.80;;;;;;;5.63;91.65;98106.59;5160669;23;20188;-82
2024/02/29 08:18:53;;;;;;;35.03;20.63;;;;;;;5.73;90.92;98110.41;5162634;23;20544;-82
2024/02/29 08:20:56;;;;;;;31.92;19.38;;;;;;;5.80;91.14;98114.38;5189461;22;20181;-82
2024/02/29 08:23:02;;;;;;;32.65;19.70;;;;;;;5.86;90.08;98119.25;5162475;23;20173;-82
2024/02/29 08:25:05;;;;;;;39.55;20.20;;;;;;;5.93;91.01;98107.69;5161979;23;20206;-82
2024/02/29 08:27:08;;;;;;;35.50;19.80;;;;;;;6.14;92.12;98103.09;5188516;22;20608;-82
2024/02/29 08:29:13;;;;;;;34.60;19.55;;;;;;;6.35;91.67;98109.78;5137910;23;20206;-82
2024/02/29 08:31:16;;;;;;;34.92;20.80;;;;;;;6.61;91.73;98114.44;5136865;23;20483;-83
2024/02/29 08:33:20;;;;;;;30.25;19.17;;;;;;;6.78;90.47;98114.38;5189216;22;20626;-82
2024/02/29 08:35:24;;;;;;;30.25;19.15;;;;;;;6.92;88.76;98109.31;5137537;23;20250;-82
2024/02/29 08:37:27;;;;;;;35.53;21.23;;;;;;;7.01;88.29;98101.88;5138942;23;20186;-82
2024/02/29 08:39:33;;;;;;;33.25;20.42;;;;;;;7.20;88.75;98102.53;5164113;23;20171;-82
2024/02/29 08:41:37;;;;;;;32.25;18.75;;;;;;;7.40;89.30;98095.34;5137198;23;20182;-82
2024/02/29 08:43:42;;;;;;;31.02;18.58;;;;;;;7.60;88.95;98097.66;5137762;23;20633;-83
2024/02/29 08:45:46;;;;;;;33.75;20.40;;;;;;;7.78;87.94;98099.19;5161915;23;20178;-83
2024/02/29 08:47:50;;;;;;;30.85;19.88;;;;;;;7.94;89.87;98098.25;5161771;23;20173;-83
2024/02/29 08:49:54;;;;;;;34.15;20.15;;;;;;;8.08;88.99;98099.09;5190730;22;20206;-82
2024/02/29 08:51:57;;;;;;;31.50;19.75;;;;;;;8.19;86.47;98096.72;5163588;23;20582;-83
2024/02/29 08:53:59;;;;;;;30.85;19.98;;;;;;;8.33;87.01;98091.56;5164113;23;20179;-82
2024/02/29 08:56:05;;;;;;;32.95;20.40;;;;;;;8.47;87.75;98094.19;5163119;23;20263;-83
2024/02/29 08:58:10;;;;;;;29.98;19.15;;;;;;;8.62;87.01;98094.09;5139074;23;20185;-83
2024/02/29 09:00:16;;;;;;;34.03;20.02;;;;;;;8.79;88.70;98093.06;5163808;23;20533;-82
2024/02/29 09:02:19;;;;;;;34.17;20.52;;;;;;;8.94;88.17;98086.00;5163042;23;20327;-83
2024/02/29 09:04:24;;;;;;;32.60;19.33;;;;;;;9.04;87.24;98081.06;5136852;23;20182;-83
2024/02/29 09:06:28;;;;;;;35.38;19.17;;;;;;;9.20;88.89;98080.00;5189716;22;20196;-83
2024/02/29 09:08:45;;;;;;;30.95;19.10;;;;;;;9.30;87.20;98073.25;5163743;23;20177;-83
2024/02/29 09:10:48;;;;;;;35.75;20.55;;;;;;;9.40;86.65;98077.78;5190143;22;20177;-83
2024/02/29 09:12:53;;;;;;;35.53;22.25;;;;;;;9.50;85.99;98076.28;5137060;23;20177;-82
2024/02/29 09:14:56;;;;;;;38.45;20.15;;;;;;;9.61;85.81;98080.81;5164014;23;20169;-82
2024/02/29 09:16:59;;;;;;;34.50;20.58;;;;;;;9.64;85.16;98078.00;5162196;23;20174;-83
2024/02/29 09:19:03;;;;;;;37.30;22.05;;;;;;;9.73;85.52;98078.22;5162743;23;20553;-83
2024/02/29 09:21:06;;;;;;;40.22;23.15;;;;;;;9.82;85.60;98074.16;5163074;23;20181;-83
2024/02/29 09:23:09;;;;;;;37.72;21.38;;;;;;;9.88;85.80;98065.03;5162098;23;20182;-83
2024/02/29 09:25:13;;;;;;;38.13;20.45;;;;;;;10.00;86.57;98069.47;5162579;23;20223;-83
2024/02/29 09:27:15;;;;;;;39.80;23.30;;;;;;;10.11;85.84;98073.97;5137526;23;20174;-84
2024/02/29 09:29:21;;;;;;;41.00;22.87;;;;;;;10.18;84.11;98070.00;5189773;22;20601;-83
2024/02/29 09:31:29;;;;;;;41.00;23.40;;;;;;;10.22;83.84;98061.03;5138582;23;20587;-84
2024/02/29 09:33:32;;;;;;;39.40;24.10;;;;;;;10.30;83.75;98058.75;5137996;23;20214;-81